Terminal Aerodrome Forecast
Issued by NWS Central Illinois

Home | Current Version | Previous Version | Text Only | Print | Product List | Glossary On
Versions: 1 2 3 4 5 6 7 8 9 10 11 12 13 14
690
FTUS43 KILX 111740
TAFPIA
TAF
KPIA 111740Z 1118/1218 VRB04KT P6SM SCT250
     FM120000 VRB03KT P6SM BKN080
     FM120200 VRB04KT 6SM -SN OVC035
     FM120400 20004KT 4SM -SN BR OVC015
     FM121000 28007KT P6SM OVC020
     FM121400 30011G16KT P6SM BKN025=

USA.gov is the U.S. government's official web portal to all federal, state and local government web resources and services.